Time;durP1;ratioP1;P1;durP2;ratioP2;P2;SDS_P1;SDS_P2;PMS_P1;PMS_P2;Temp;Humidity;BMP_temperature;BMP_pressure;BME280_temperature;BME280_humidity;BME280_pressure;Samples;Min_cycle;Max_cycle;Signal;HPM_P1;HPM_P2
2021/01/05 00:01:19;;;;;;;8.25;6.35;;;0.30;99.90;;;;;;4966454;28;20212;-71
2021/01/05 00:03:45;;;;;;;9.60;6.82;;;0.30;99.90;;;;;;4965756;28;20234;-72
2021/01/05 00:06:11;;;;;;;9.68;7.30;;;0.30;99.90;;;;;;4966465;28;20211;-73
2021/01/05 00:08:37;;;;;;;9.02;7.13;;;0.30;99.90;;;;;;4966279;28;20219;-72
2021/01/05 00:11:04;;;;;;;9.60;7.30;;;0.30;99.90;;;;;;4966091;28;20596;-72
2021/01/05 00:13:30;;;;;;;8.85;6.53;;;0.30;99.90;;;;;;4965122;28;20596;-72
2021/01/05 00:15:57;;;;;;;8.30;6.13;;;0.30;99.90;;;;;;4966441;28;20219;-72
2021/01/05 00:18:23;;;;;;;8.05;6.25;;;0.30;99.90;;;;;;4965833;28;20208;-70
2021/01/05 00:20:49;;;;;;;6.80;5.90;;;0.40;99.90;;;;;;4965553;28;20204;-71
2021/01/05 00:23:16;;;;;;;9.13;6.80;;;0.30;99.90;;;;;;4965252;28;20699;-71
2021/01/05 00:25:42;;;;;;;13.45;7.13;;;0.40;99.90;;;;;;4965499;28;20508;-72
2021/01/05 00:28:09;;;;;;;8.25;6.03;;;0.30;99.90;;;;;;4969305;28;20218;-72
2021/01/05 00:30:35;;;;;;;8.85;6.82;;;0.40;99.90;;;;;;4968741;28;20228;-69
2021/01/05 00:33:04;;;;;;;9.20;6.90;;;0.30;99.90;;;;;;4968649;28;20239;-71
2021/01/05 00:35:32;;;;;;;10.57;7.15;;;0.30;99.90;;;;;;4970563;28;20207;-72
2021/01/05 00:37:59;;;;;;;12.15;8.55;;;0.30;99.90;;;;;;4970428;28;20254;-69
2021/01/05 00:40:26;;;;;;;12.05;8.27;;;0.30;99.90;;;;;;4970771;28;20207;-71
2021/01/05 00:42:53;;;;;;;12.70;8.82;;;0.30;99.90;;;;;;4964505;28;20307;-71
2021/01/05 00:45:21;;;;;;;11.10;8.20;;;0.40;99.90;;;;;;4951389;28;20231;-72
2021/01/05 00:47:47;;;;;;;11.77;8.90;;;0.30;99.90;;;;;;4951120;29;20212;-69
2021/01/05 00:50:15;;;;;;;13.48;9.07;;;0.30;99.90;;;;;;4951416;29;20205;-71
2021/01/05 00:52:41;;;;;;;13.93;10.20;;;0.30;99.90;;;;;;4950482;29;20208;-71
2021/01/05 00:55:09;;;;;;;10.85;8.20;;;0.40;99.90;;;;;;4951129;28;20224;-71
2021/01/05 00:57:35;;;;;;;12.43;9.00;;;0.40;99.90;;;;;;4951196;28;20216;-71
2021/01/05 01:00:03;;;;;;;15.50;9.63;;;0.40;99.90;;;;;;4951234;28;20215;-71
2021/01/05 01:02:29;;;;;;;13.93;8.95;;;0.40;99.90;;;;;;4950641;28;20204;-71
2021/01/05 01:04:55;;;;;;;14.30;10.27;;;0.40;99.90;;;;;;4950810;29;20590;-72
2021/01/05 01:07:22;;;;;;;12.32;9.95;;;0.40;99.90;;;;;;4951183;29;20208;-72
2021/01/05 01:09:48;;;;;;;13.65;9.77;;;0.40;99.90;;;;;;4949237;28;20380;-72
2021/01/05 01:12:17;;;;;;;15.88;10.75;;;0.40;99.90;;;;;;4949295;29;20542;-72
2021/01/05 01:14:45;;;;;;;15.48;9.88;;;0.40;99.90;;;;;;4950326;29;20250;-70
2021/01/05 01:17:12;;;;;;;15.15;9.85;;;0.40;99.90;;;;;;4950695;28;20204;-71
2021/01/05 01:19:38;;;;;;;13.55;10.30;;;0.40;99.90;;;;;;4951044;28;20219;-70
2021/01/05 01:22:05;;;;;;;15.48;9.57;;;0.30;99.90;;;;;;4950506;29;20208;-71
2021/01/05 01:24:33;;;;;;;12.75;9.30;;;0.30;99.90;;;;;;4951022;29;20224;-72
2021/01/05 01:27:00;;;;;;;17.50;11.05;;;0.30;99.90;;;;;;4948841;28;20215;-72
2021/01/05 01:29:28;;;;;;;14.88;10.05;;;0.30;99.90;;;;;;4950319;28;20212;-70
2021/01/05 01:31:56;;;;;;;13.25;10.00;;;0.30;99.90;;;;;;4950198;28;20630;-69
2021/01/05 01:34:25;;;;;;;16.90;10.70;;;0.30;99.90;;;;;;4951024;28;20246;-72
2021/01/05 01:36:56;;;;;;;11.02;8.90;;;0.30;99.90;;;;;;4950793;29;20580;-72
2021/01/05 01:39:22;;;;;;;12.05;10.30;;;0.40;99.90;;;;;;4953044;28;20201;-71
2021/01/05 01:41:49;;;;;;;17.00;11.52;;;0.40;99.90;;;;;;4954019;28;20205;-69
2021/01/05 01:44:22;;;;;;;17.92;12.15;;;0.40;99.90;;;;;;4954684;29;20221;-69
2021/01/05 01:46:50;;;;;;;15.68;10.30;;;0.40;99.90;;;;;;4954600;29;20205;-71
2021/01/05 01:49:17;;;;;;;13.60;10.27;;;0.40;99.90;;;;;;4954515;28;20204;-71
2021/01/05 01:51:44;;;;;;;14.60;10.20;;;0.40;99.90;;;;;;4953849;29;20225;-71
2021/01/05 01:54:35;;;;;;;16.77;10.38;;;0.40;99.90;;;;;;4954348;29;20227;-71
2021/01/05 01:57:34;;;;;;;16.65;10.23;;;0.50;99.90;;;;;;4955082;28;20576;-72
2021/01/05 02:00:25;;;;;;;15.25;11.27;;;0.50;99.90;;;;;;4950483;28;20215;-72
2021/01/05 02:03:16;;;;;;;13.13;9.98;;;0.50;99.90;;;;;;4953690;29;20208;-72
2021/01/05 02:05:52;;;;;;;17.13;11.05;;;0.50;99.90;;;;;;4954150;29;20200;-71
2021/01/05 02:08:30;;;;;;;13.02;9.20;;;0.50;99.90;;;;;;4954414;29;20212;-71
2021/01/05 02:11:13;;;;;;;17.35;10.70;;;0.50;99.90;;;;;;4954072;29;20295;-71
2021/01/05 02:14:00;;;;;;;17.27;11.13;;;0.50;99.90;;;;;;4953599;29;20227;-70
2021/01/05 02:16:37;;;;;;;16.10;10.73;;;0.40;99.90;;;;;;4953884;29;20215;-71
2021/01/05 02:19:09;;;;;;;13.32;9.57;;;0.40;99.90;;;;;;4954270;28;20201;-71
2021/01/05 02:21:40;;;;;;;10.90;8.55;;;0.40;99.90;;;;;;4953335;29;20193;-70
2021/01/05 02:24:24;;;;;;;15.27;9.48;;;0.40;99.90;;;;;;4953940;29;20236;-72
2021/01/05 02:26:56;;;;;;;14.07;9.52;;;0.40;99.90;;;;;;4953776;29;20578;-71
2021/01/05 02:29:25;;;;;;;14.00;9.60;;;0.40;99.90;;;;;;4953823;28;20219;-70
2021/01/05 02:32:11;;;;;;;14.50;9.77;;;0.50;99.90;;;;;;4952949;28;20224;-71
2021/01/05 02:34:59;;;;;;;12.75;9.43;;;0.50;99.90;;;;;;4953663;29;20591;-72
2021/01/05 02:37:32;;;;;;;12.25;8.63;;;0.40;99.90;;;;;;4953681;29;20215;-69
2021/01/05 02:40:36;;;;;;;14.10;9.75;;;0.50;99.90;;;;;;4953709;29;20672;-72
2021/01/05 02:43:49;;;;;;;12.45;8.02;;;0.50;99.90;;;;;;4953239;29;20200;-71
2021/01/05 02:46:27;;;;;;;14.55;8.25;;;0.50;99.90;;;;;;4913024;29;20210;-71
2021/01/05 02:49:19;;;;;;;12.07;8.43;;;0.50;99.90;;;;;;4951315;28;20217;-70
2021/01/05 02:52:24;;;;;;;14.25;8.35;;;0.50;99.90;;;;;;4952007;28;20231;-71
2021/01/05 02:55:14;;;;;;;16.70;9.95;;;0.50;99.90;;;;;;4953168;29;20303;-70
2021/01/05 02:58:00;;;;;;;12.98;9.27;;;0.50;99.90;;;;;;4953281;29;20216;-71
2021/01/05 03:01:16;;;;;;;14.48;9.30;;;0.60;99.90;;;;;;4953016;29;20200;-71
2021/01/05 03:03:45;;;;;;;19.17;11.63;;;0.60;99.90;;;;;;4952687;28;20225;-71
2021/01/05 03:06:34;;;;;;;14.48;10.20;;;0.60;99.90;;;;;;4953150;29;20287;-70
2021/01/05 03:09:15;;;;;;;16.88;10.50;;;0.60;99.90;;;;;;4953210;28;20204;-70
2021/01/05 03:11:58;;;;;;;17.90;12.15;;;0.50;99.90;;;;;;4952344;29;20228;-71
2021/01/05 03:14:30;;;;;;;18.42;11.25;;;0.60;99.90;;;;;;4952986;29;20225;-71
2021/01/05 03:17:04;;;;;;;17.33;11.73;;;0.60;99.90;;;;;;4952904;29;20209;-71
2021/01/05 03:19:39;;;;;;;17.48;10.55;;;0.60;99.90;;;;;;4953021;29;20204;-71
2021/01/05 03:22:08;;;;;;;15.02;10.68;;;0.60;99.90;;;;;;4952568;28;20212;-71
2021/01/05 03:24:36;;;;;;;15.55;10.35;;;0.60;99.90;;;;;;4952803;29;20235;-71
2021/01/05 03:27:03;;;;;;;14.32;10.10;;;0.60;99.90;;;;;;4952992;29;20215;-71
2021/01/05 03:29:29;;;;;;;16.50;10.95;;;0.60;99.90;;;;;;4952454;28;20219;-69
2021/01/05 03:32:00;;;;;;;15.15;10.13;;;0.60;99.90;;;;;;4952063;28;20239;-69
2021/01/05 03:34:27;;;;;;;16.98;10.75;;;0.60;99.90;;;;;;4952617;29;20224;-71
2021/01/05 03:36:53;;;;;;;18.35;11.95;;;0.60;99.90;;;;;;4952707;29;20228;-71
2021/01/05 03:39:19;;;;;;;17.48;11.75;;;0.60;99.90;;;;;;4952579;28;20204;-71
2021/01/05 03:41:45;;;;;;;17.58;11.95;;;0.60;99.90;;;;;;4952061;28;20208;-71
2021/01/05 03:44:12;;;;;;;17.10;11.48;;;0.50;99.90;;;;;;4952477;29;20228;-71
2021/01/05 03:46:38;;;;;;;22.42;13.38;;;0.50;99.90;;;;;;4952335;29;20581;-71
2021/01/05 03:49:05;;;;;;;23.45;14.13;;;0.60;99.90;;;;;;4952626;29;20200;-69
2021/01/05 03:51:31;;;;;;;20.00;12.88;;;0.50;99.90;;;;;;4951910;29;20239;-70
2021/01/05 03:53:58;;;;;;;20.67;12.38;;;0.50;99.90;;;;;;4952213;29;20228;-71
2021/01/05 03:56:24;;;;;;;22.50;13.50;;;0.50;99.90;;;;;;4952225;28;20205;-71
2021/01/05 03:58:50;;;;;;;23.48;13.15;;;0.50;99.90;;;;;;4952087;29;20208;-71
2021/01/05 04:01:16;;;;;;;20.42;12.75;;;0.60;99.90;;;;;;4952124;28;20205;-71
2021/01/05 04:03:43;;;;;;;19.08;13.32;;;0.60;99.90;;;;;;4951556;28;20224;-71
2021/01/05 04:06:11;;;;;;;18.83;13.10;;;0.60;99.90;;;;;;4952283;29;20216;-71
2021/01/05 04:08:37;;;;;;;23.58;14.45;;;0.60;99.90;;;;;;4952020;29;20224;-71
2021/01/05 04:11:04;;;;;;;25.25;14.15;;;0.50;99.90;;;;;;4952157;28;20227;-71
2021/01/05 04:13:30;;;;;;;27.33;15.25;;;0.50;99.90;;;;;;4951360;29;20232;-71
2021/01/05 04:15:57;;;;;;;26.05;13.55;;;0.50;99.90;;;;;;4952238;29;20208;-71
2021/01/05 04:18:23;;;;;;;22.77;14.73;;;0.60;99.90;;;;;;4952301;29;20215;-72
2021/01/05 04:20:50;;;;;;;23.08;13.35;;;0.50;99.90;;;;;;4953257;29;20208;-72
2021/01/05 04:23:17;;;;;;;28.17;15.80;;;0.60;99.90;;;;;;4951690;28;20208;-72
2021/01/05 04:25:43;;;;;;;27.77;15.57;;;0.60;99.90;;;;;;4951964;28;20208;-71
2021/01/05 04:28:10;;;;;;;22.33;13.63;;;0.70;99.90;;;;;;4952102;29;20212;-72
2021/01/05 04:30:37;;;;;;;21.50;13.20;;;0.70;99.90;;;;;;5039412;23;20241;-74
2021/01/05 04:33:06;;;;;;;24.40;17.00;;;0.60;99.90;;;;;;5008964;28;20198;-75
2021/01/05 04:35:32;;;;;;;26.60;15.80;;;0.60;99.90;;;;;;5009610;28;20209;-74
2021/01/05 04:37:59;;;;;;;23.08;14.65;;;0.60;99.90;;;;;;5010159;28;20221;-71
2021/01/05 04:40:34;;;;;;;23.40;13.43;;;0.60;99.90;;;;;;5009874;28;20257;-73
2021/01/05 04:43:12;;;;;;;25.98;15.30;;;0.60;99.90;;;;;;5008844;28;20217;-75
2021/01/05 04:45:47;;;;;;;25.55;14.85;;;0.60;99.90;;;;;;5009530;28;20946;-75
2021/01/05 04:48:32;;;;;;;24.80;14.25;;;0.60;99.90;;;;;;5009452;28;20202;-73
2021/01/05 04:51:02;;;;;;;26.95;14.88;;;0.70;99.90;;;;;;5009383;28;20229;-74
2021/01/05 04:53:38;;;;;;;26.58;16.08;;;0.70;99.90;;;;;;5008866;28;20226;-74
2021/01/05 04:56:09;;;;;;;24.42;15.15;;;0.70;99.90;;;;;;5009473;28;20206;-74
2021/01/05 04:58:42;;;;;;;26.92;15.20;;;0.70;99.90;;;;;;5009250;28;20206;-75
2021/01/05 05:01:14;;;;;;;27.40;14.70;;;0.70;99.90;;;;;;5009339;28;20209;-74
2021/01/05 05:03:57;;;;;;;22.63;13.25;;;0.70;99.90;;;;;;5008411;28;20234;-73
2021/01/05 05:06:33;;;;;;;26.10;15.95;;;0.70;99.90;;;;;;5009378;28;20210;-74
2021/01/05 05:09:19;;;;;;;22.02;13.45;;;0.70;99.90;;;;;;5009193;28;20205;-74
2021/01/05 05:12:03;;;;;;;23.23;14.32;;;0.70;99.90;;;;;;5008131;28;20226;-74
2021/01/05 05:14:41;;;;;;;23.58;14.90;;;0.70;99.90;;;;;;5008789;28;20314;-73
2021/01/05 05:17:39;;;;;;;25.15;14.48;;;0.70;99.90;;;;;;5009229;28;20596;-73
2021/01/05 05:20:20;;;;;;;21.70;13.98;;;0.60;99.90;;;;;;5009216;28;20294;-74
2021/01/05 05:22:58;;;;;;;24.27;15.02;;;0.70;99.90;;;;;;5008504;28;20202;-73
2021/01/05 05:25:36;;;;;;;24.02;15.15;;;0.70;99.90;;;;;;5009052;28;20226;-73
2021/01/05 05:28:08;;;;;;;24.05;14.80;;;0.70;99.90;;;;;;5008852;28;20688;-73
2021/01/05 05:30:37;;;;;;;24.85;16.00;;;0.70;99.90;;;;;;5008778;28;20211;-72
2021/01/05 05:33:11;;;;;;;23.77;15.07;;;0.80;99.90;;;;;;5008304;28;20213;-73
2021/01/05 05:36:03;;;;;;;23.38;15.50;;;0.70;99.90;;;;;;5009233;28;20205;-72
2021/01/05 05:38:44;;;;;;;24.80;15.68;;;0.90;99.90;;;;;;5009360;28;20273;-73
2021/01/05 05:41:20;;;;;;;25.98;15.18;;;1.10;99.90;;;;;;5008945;28;20198;-74
2021/01/05 05:44:10;;;;;;;22.95;16.30;;;1.30;99.90;;;;;;5008214;28;20230;-73
2021/01/05 05:46:40;;;;;;;23.77;15.05;;;1.30;99.90;;;;;;4992341;28;20206;-73
2021/01/05 05:49:17;;;;;;;23.55;13.80;;;1.30;99.90;;;;;;5009054;28;20202;-73
2021/01/05 05:51:50;;;;;;;22.15;13.88;;;1.30;99.90;;;;;;5008181;28;20680;-75
2021/01/05 05:54:19;;;;;;;22.83;14.80;;;1.20;99.90;;;;;;5008830;28;20257;-72
2021/01/05 05:56:56;;;;;;;21.15;16.05;;;1.10;99.90;;;;;;5008712;28;20202;-75
2021/01/05 05:59:39;;;;;;;25.38;16.13;;;1.10;99.90;;;;;;5009101;28;20304;-72
2021/01/05 06:02:06;;;;;;;25.20;14.45;;;1.10;99.90;;;;;;5008029;28;20202;-72
2021/01/05 06:04:37;;;;;;;24.45;15.38;;;1.00;99.90;;;;;;5008671;28;20233;-73
2021/01/05 06:07:03;;;;;;;22.02;14.73;;;0.90;99.90;;;;;;5008705;28;20203;-72
2021/01/05 06:09:29;;;;;;;24.52;14.02;;;0.90;99.90;;;;;;5008982;28;20202;-72
2021/01/05 06:11:56;;;;;;;20.92;14.10;;;1.00;99.90;;;;;;5008055;28;20265;-72
2021/01/05 06:14:22;;;;;;;23.45;14.55;;;1.00;99.90;;;;;;5008839;28;20245;-72
2021/01/05 06:16:49;;;;;;;24.38;14.52;;;1.00;99.90;;;;;;5008708;28;20210;-75
2021/01/05 06:19:16;;;;;;;21.60;15.23;;;1.00;99.90;;;;;;5008842;28;20206;-72
2021/01/05 06:21:42;;;;;;;22.52;15.10;;;1.00;99.90;;;;;;5007917;28;20198;-72
2021/01/05 06:24:08;;;;;;;27.00;16.40;;;1.00;99.90;;;;;;5008485;28;20281;-73
2021/01/05 06:26:35;;;;;;;26.90;16.50;;;0.90;99.90;;;;;;5011051;28;20690;-72
2021/01/05 06:29:01;;;;;;;22.95;15.57;;;1.00;99.90;;;;;;5011790;28;20213;-72
2021/01/05 06:31:27;;;;;;;22.17;14.65;;;1.00;99.90;;;;;;5011620;28;20222;-71
2021/01/05 06:33:54;;;;;;;21.55;14.43;;;0.90;99.90;;;;;;5011093;28;20226;-72
2021/01/05 06:36:20;;;;;;;24.90;15.88;;;1.00;99.90;;;;;;5012321;28;20280;-72
2021/01/05 06:38:47;;;;;;;25.83;15.25;;;1.00;99.90;;;;;;5011950;28;20202;-72
2021/01/05 06:41:13;;;;;;;22.38;15.38;;;1.00;99.90;;;;;;5012036;28;20245;-72
2021/01/05 06:43:39;;;;;;;24.98;15.88;;;1.10;99.90;;;;;;5011300;28;20230;-72
2021/01/05 06:46:06;;;;;;;24.85;14.95;;;1.10;99.90;;;;;;5011702;28;20206;-72
2021/01/05 06:48:32;;;;;;;23.33;15.57;;;1.10;99.90;;;;;;5011891;28;20245;-73
2021/01/05 06:50:59;;;;;;;23.60;15.93;;;1.10;99.90;;;;;;5011391;28;20210;-72
2021/01/05 06:53:25;;;;;;;24.45;14.13;;;1.10;99.90;;;;;;5010982;28;20226;-73
2021/01/05 06:55:51;;;;;;;19.70;13.95;;;1.10;99.90;;;;;;5011206;28;20198;-73
2021/01/05 06:58:18;;;;;;;24.95;15.20;;;1.00;99.90;;;;;;5011473;28;20198;-73
2021/01/05 07:00:44;;;;;;;25.52;15.00;;;1.10;99.90;;;;;;5010844;28;20210;-73
2021/01/05 07:03:10;;;;;;;31.60;16.23;;;1.00;99.90;;;;;;5010055;28;20203;-73
2021/01/05 07:05:36;;;;;;;24.52;16.17;;;1.10;99.90;;;;;;5011082;28;20198;-73
2021/01/05 07:08:04;;;;;;;26.42;14.50;;;1.10;99.90;;;;;;5010910;28;20690;-72
2021/01/05 07:10:30;;;;;;;26.25;17.15;;;1.00;99.90;;;;;;5008083;28;20206;-73
2021/01/05 07:12:56;;;;;;;22.23;14.30;;;1.00;99.90;;;;;;5006111;28;20272;-75
2021/01/05 07:15:23;;;;;;;28.90;17.38;;;1.00;99.90;;;;;;5010228;28;20245;-74
2021/01/05 07:17:49;;;;;;;24.95;15.77;;;1.10;99.90;;;;;;5009275;28;20206;-75
2021/01/05 07:20:16;;;;;;;22.98;15.15;;;1.10;99.90;;;;;;5009063;28;20203;-75
2021/01/05 07:22:42;;;;;;;24.42;14.82;;;1.10;99.90;;;;;;5007613;28;20602;-73
2021/01/05 07:25:12;;;;;;;25.42;15.68;;;1.00;99.90;;;;;;5017546;28;20249;-73
2021/01/05 07:27:38;;;;;;;25.17;16.13;;;1.00;99.90;;;;;;5009453;28;20251;-74
2021/01/05 07:30:07;;;;;;;31.58;21.30;;;1.00;99.90;;;;;;5008314;28;20499;-73
2021/01/05 07:32:33;;;;;;;26.75;17.65;;;0.90;99.90;;;;;;5022557;28;20248;-72
2021/01/05 07:34:59;;;;;;;26.30;15.98;;;1.00;99.90;;;;;;5027113;28;20291;-72
2021/01/05 07:37:29;;;;;;;27.02;15.95;;;0.90;99.90;;;;;;5020155;28;20205;-72
2021/01/05 07:39:55;;;;;;;21.02;15.18;;;0.90;99.90;;;;;;5017366;28;20210;-72
2021/01/05 07:42:25;;;;;;;26.35;15.73;;;1.00;99.90;;;;;;5008696;28;20206;-72
2021/01/05 07:44:53;;;;;;;23.10;14.15;;;1.00;99.90;;;;;;5009658;28;20598;-71
2021/01/05 07:47:22;;;;;;;25.60;15.20;;;1.00;99.90;;;;;;5009537;28;20280;-71
2021/01/05 07:49:48;;;;;;;26.83;15.27;;;1.00;99.90;;;;;;5009819;28;20206;-71
2021/01/05 07:52:23;;;;;;;26.33;15.77;;;1.00;99.90;;;;;;5008292;28;20222;-72
2021/01/05 07:54:50;;;;;;;26.58;16.88;;;1.00;99.90;;;;;;5009376;28;20222;-71
2021/01/05 07:57:16;;;;;;;21.48;14.65;;;1.00;99.90;;;;;;5001961;28;20217;-73
2021/01/05 07:59:44;;;;;;;25.30;15.38;;;1.00;99.90;;;;;;5007171;28;20210;-72
2021/01/05 08:02:10;;;;;;;20.25;13.70;;;1.10;99.90;;;;;;4990573;28;20202;-73
2021/01/05 08:04:39;;;;;;;24.48;15.45;;;1.10;99.90;;;;;;4988977;28;20230;-72
2021/01/05 08:07:06;;;;;;;24.35;15.90;;;1.10;99.90;;;;;;4989641;28;20207;-71
2021/01/05 08:09:33;;;;;;;23.65;16.20;;;1.10;99.90;;;;;;4990030;28;20298;-72
2021/01/05 08:11:59;;;;;;;20.25;13.60;;;1.20;99.90;;;;;;5003492;28;20230;-72
2021/01/05 08:14:25;;;;;;;23.02;14.60;;;1.10;99.90;;;;;;5028984;28;20591;-72
2021/01/05 08:16:52;;;;;;;21.80;15.23;;;1.10;99.90;;;;;;5028590;28;20255;-72
2021/01/05 08:19:18;;;;;;;22.98;15.05;;;1.10;99.90;;;;;;5029012;28;20608;-71
2021/01/05 08:21:45;;;;;;;24.70;14.80;;;1.10;99.90;;;;;;5028343;28;20205;-71
2021/01/05 08:24:11;;;;;;;24.02;14.65;;;1.10;99.90;;;;;;5028205;28;20780;-71
2021/01/05 08:26:38;;;;;;;21.55;13.85;;;1.10;99.90;;;;;;5028722;28;20256;-72
2021/01/05 08:29:04;;;;;;;26.05;15.65;;;1.10;99.90;;;;;;5028837;28;20209;-73
2021/01/05 08:31:33;;;;;;;27.23;15.23;;;1.20;99.90;;;;;;5028470;28;20236;-71
2021/01/05 08:34:01;;;;;;;28.52;20.98;;;1.20;99.90;;;;;;5028475;28;20374;-71
2021/01/05 08:36:28;;;;;;;21.80;15.70;;;1.20;99.90;;;;;;5028424;28;20202;-72
2021/01/05 08:38:54;;;;;;;23.27;14.75;;;1.20;99.90;;;;;;5028337;28;20450;-71
2021/01/05 08:41:20;;;;;;;19.90;14.43;;;1.20;99.90;;;;;;5028815;28;20210;-74
2021/01/05 08:43:47;;;;;;;17.48;12.82;;;1.20;99.90;;;;;;5027477;28;20225;-73
2021/01/05 08:46:20;;;;;;;19.98;12.40;;;1.20;99.90;;;;;;5028930;28;20206;-73
2021/01/05 08:48:46;;;;;;;17.40;12.40;;;1.20;99.90;;;;;;5027040;28;20639;-71
2021/01/05 08:51:14;;;;;;;18.30;12.82;;;1.30;99.90;;;;;;5008656;28;20721;-71
2021/01/05 08:53:41;;;;;;;17.98;12.32;;;1.30;99.90;;;;;;5007992;28;20237;-72
2021/01/05 08:56:15;;;;;;;19.05;14.23;;;1.30;99.90;;;;;;5008812;28;20693;-72
2021/01/05 08:58:41;;;;;;;21.20;14.95;;;1.30;99.90;;;;;;5008652;28;20205;-72
2021/01/05 09:01:07;;;;;;;21.42;14.02;;;1.30;99.90;;;;;;5007507;28;20214;-73
2021/01/05 09:03:33;;;;;;;19.38;14.55;;;1.30;99.90;;;;;;5007811;28;20245;-72
2021/01/05 09:06:00;;;;;;;20.35;13.30;;;1.30;99.90;;;;;;5008445;28;20214;-71
2021/01/05 09:08:30;;;;;;;16.88;11.93;;;1.30;99.90;;;;;;5009016;28;20626;-72
2021/01/05 09:10:57;;;;;;;15.63;12.75;;;1.30;99.90;;;;;;5008464;28;20619;-73
2021/01/05 09:13:24;;;;;;;16.80;10.75;;;1.30;99.90;;;;;;5007864;28;20229;-71
2021/01/05 09:15:50;;;;;;;14.32;10.27;;;1.30;99.90;;;;;;5008075;28;20241;-72
2021/01/05 09:18:17;;;;;;;17.85;12.95;;;1.20;99.90;;;;;;5009071;28;20259;-74
2021/01/05 09:20:43;;;;;;;16.48;11.18;;;1.20;99.90;;;;;;5008341;28;20214;-71
2021/01/05 09:23:10;;;;;;;15.95;11.48;;;1.30;99.90;;;;;;5008080;28;20202;-72
2021/01/05 09:25:38;;;;;;;15.00;11.32;;;1.30;99.90;;;;;;5008609;28;20578;-73
2021/01/05 09:28:04;;;;;;;15.18;10.85;;;1.30;99.90;;;;;;5007761;28;20218;-74
2021/01/05 09:30:31;;;;;;;15.43;11.10;;;1.30;99.90;;;;;;5008524;28;20214;-72
2021/01/05 09:32:58;;;;;;;17.52;11.55;;;1.40;99.90;;;;;;5007237;28;20238;-72
2021/01/05 09:35:25;;;;;;;16.80;11.80;;;1.40;99.90;;;;;;5008658;28;20256;-73
2021/01/05 09:37:51;;;;;;;15.38;11.18;;;1.40;99.90;;;;;;5008207;28;20213;-73
2021/01/05 09:40:19;;;;;;;18.60;11.73;;;1.30;99.90;;;;;;5005344;28;20792;-71
2021/01/05 09:42:46;;;;;;;18.88;11.98;;;1.40;99.90;;;;;;5005189;28;20708;-72
2021/01/05 09:45:13;;;;;;;16.40;12.20;;;1.30;99.90;;;;;;5007841;28;20218;-73
2021/01/05 09:47:39;;;;;;;14.80;11.68;;;1.30;99.90;;;;;;4999626;28;20222;-73
2021/01/05 09:50:07;;;;;;;16.60;11.85;;;1.30;99.90;;;;;;5007354;28;20198;-73
2021/01/05 09:52:34;;;;;;;16.33;11.75;;;1.30;99.90;;;;;;5005879;28;20563;-72
2021/01/05 09:55:00;;;;;;;16.90;11.60;;;1.30;99.90;;;;;;5004415;28;20222;-72
2021/01/05 09:57:26;;;;;;;14.70;9.98;;;1.30;99.90;;;;;;5007147;28;20662;-72
2021/01/05 09:59:53;;;;;;;15.73;11.93;;;1.30;99.90;;;;;;5007910;28;20203;-72
2021/01/05 10:02:21;;;;;;;18.83;12.13;;;1.30;99.90;;;;;;5009527;28;20198;-71
2021/01/05 10:04:47;;;;;;;20.40;13.40;;;1.40;99.90;;;;;;5011098;28;20225;-71
2021/01/05 10:07:13;;;;;;;20.67;13.32;;;1.40;99.90;;;;;;5012091;28;20349;-70
2021/01/05 10:09:40;;;;;;;18.02;12.50;;;1.40;99.90;;;;;;5011518;28;20206;-71
2021/01/05 10:12:07;;;;;;;17.50;12.07;;;1.40;99.90;;;;;;5002760;28;20222;-71
2021/01/05 10:14:33;;;;;;;17.20;12.70;;;1.40;99.90;;;;;;5013693;28;20225;-73
2021/01/05 10:17:00;;;;;;;19.90;12.07;;;1.50;99.90;;;;;;5018177;28;20210;-72
2021/01/05 10:19:27;;;;;;;18.73;14.23;;;1.40;99.90;;;;;;5020643;28;20573;-71
2021/01/05 10:21:53;;;;;;;19.63;13.00;;;1.40;99.90;;;;;;5013247;28;20616;-72
2021/01/05 10:24:19;;;;;;;19.65;12.60;;;1.40;99.90;;;;;;5024280;28;20234;-73
2021/01/05 10:26:56;;;;;;;16.50;12.63;;;1.40;99.90;;;;;;5018311;28;20198;-73
2021/01/05 10:29:23;;;;;;;15.23;11.80;;;1.40;99.90;;;;;;5021038;28;20198;-72
2021/01/05 10:31:50;;;;;;;17.08;11.65;;;1.50;99.90;;;;;;5023027;28;20260;-71
2021/01/05 10:34:21;;;;;;;19.25;12.68;;;1.50;99.90;;;;;;5021616;28;20217;-72
2021/01/05 10:36:51;;;;;;;18.27;12.30;;;1.50;99.90;;;;;;5018119;28;20569;-71
2021/01/05 10:39:17;;;;;;;19.48;12.63;;;1.50;99.90;;;;;;5011431;28;20213;-72
2021/01/05 10:41:45;;;;;;;18.42;12.65;;;1.60;99.90;;;;;;5014785;28;20198;-74
2021/01/05 10:44:13;;;;;;;17.77;12.57;;;1.60;99.90;;;;;;5018979;28;20234;-72
2021/01/05 10:46:40;;;;;;;16.35;12.25;;;1.60;99.90;;;;;;5013417;28;20206;-73
2021/01/05 10:49:06;;;;;;;16.75;11.48;;;1.60;99.90;;;;;;5024148;28;20259;-73
2021/01/05 10:51:33;;;;;;;18.48;13.50;;;1.60;99.90;;;;;;5024831;28;20222;-72
2021/01/05 10:54:01;;;;;;;19.38;12.57;;;1.70;99.90;;;;;;5025247;28;20229;-72
2021/01/05 10:56:28;;;;;;;16.20;11.45;;;1.80;99.90;;;;;;5027846;28;20202;-72
2021/01/05 10:58:54;;;;;;;16.80;12.25;;;1.80;99.90;;;;;;5018877;28;20202;-74
2021/01/05 11:01:20;;;;;;;15.20;10.98;;;1.80;99.90;;;;;;5022095;28;20602;-73
2021/01/05 11:03:46;;;;;;;18.02;12.45;;;1.90;99.90;;;;;;5015700;28;20238;-71
2021/01/05 11:06:13;;;;;;;18.90;12.00;;;1.70;99.90;;;;;;5019024;28;20202;-74
2021/01/05 11:08:40;;;;;;;19.30;12.18;;;1.70;99.90;;;;;;5011821;28;20667;-73
2021/01/05 11:11:16;;;;;;;15.85;12.00;;;1.80;99.90;;;;;;5011322;28;20846;-72
2021/01/05 11:13:42;;;;;;;16.80;11.90;;;1.70;99.90;;;;;;5022189;28;20270;-73
2021/01/05 11:16:08;;;;;;;22.25;13.98;;;1.80;99.90;;;;;;5017455;28;20206;-73
2021/01/05 11:18:34;;;;;;;17.95;12.10;;;1.70;99.90;;;;;;5007721;28;20202;-74
2021/01/05 11:21:01;;;;;;;19.33;12.13;;;1.80;99.90;;;;;;5009921;28;20202;-75
2021/01/05 11:23:27;;;;;;;16.75;12.77;;;1.80;99.90;;;;;;5012079;28;20215;-74
2021/01/05 11:25:54;;;;;;;19.98;12.80;;;1.80;99.90;;;;;;5010231;28;20198;-73
2021/01/05 11:28:20;;;;;;;18.17;11.98;;;1.90;99.90;;;;;;5007865;28;20815;-72
2021/01/05 11:30:47;;;;;;;19.23;12.70;;;1.90;99.90;;;;;;5008946;28;20253;-74
2021/01/05 11:33:13;;;;;;;20.30;13.90;;;1.90;99.90;;;;;;5009510;28;20238;-74
2021/01/05 11:35:42;;;;;;;19.45;14.55;;;1.90;99.90;;;;;;5018109;28;20206;-75
2021/01/05 11:38:08;;;;;;;20.98;12.93;;;2.00;99.90;;;;;;5009128;28;20206;-74
2021/01/05 11:40:34;;;;;;;20.67;13.05;;;1.90;99.90;;;;;;5014784;28;20621;-73
2021/01/05 11:43:02;;;;;;;17.98;12.48;;;1.90;99.90;;;;;;5017799;28;20835;-74
2021/01/05 11:45:28;;;;;;;21.38;12.50;;;1.80;99.90;;;;;;5021310;28;20653;-73
2021/01/05 11:47:54;;;;;;;17.17;13.40;;;1.80;99.90;;;;;;5026030;28;20208;-71
2021/01/05 11:50:20;;;;;;;21.17;13.48;;;1.80;99.90;;;;;;5020304;28;20587;-73
2021/01/05 11:52:47;;;;;;;18.95;12.45;;;1.80;99.90;;;;;;5019160;28;20214;-72
2021/01/05 11:55:14;;;;;;;20.55;13.18;;;1.80;99.90;;;;;;5011396;28;20222;-73
2021/01/05 11:57:43;;;;;;;21.40;13.50;;;1.90;99.90;;;;;;5027658;28;20210;-72
2021/01/05 12:00:16;;;;;;;19.38;13.05;;;2.00;99.90;;;;;;5011178;28;20206;-72
2021/01/05 12:02:43;;;;;;;15.18;12.00;;;2.00;99.90;;;;;;5024485;28;20208;-73
2021/01/05 12:05:12;;;;;;;18.42;12.10;;;2.10;99.90;;;;;;5017815;28;20238;-71
2021/01/05 12:07:38;;;;;;;19.52;12.80;;;2.10;99.90;;;;;;5018013;28;20203;-74
2021/01/05 12:10:05;;;;;;;22.48;14.13;;;2.10;99.90;;;;;;5014179;28;20195;-74
2021/01/05 12:12:32;;;;;;;21.58;13.10;;;2.00;99.90;;;;;;5019108;28;20747;-73
2021/01/05 12:14:58;;;;;;;18.98;12.60;;;2.00;99.90;;;;;;5025785;28;20229;-73
2021/01/05 12:17:26;;;;;;;21.15;12.95;;;2.00;99.90;;;;;;5015747;28;20670;-73
2021/01/05 12:19:53;;;;;;;18.77;12.52;;;2.00;99.90;;;;;;5017877;28;20210;-73
2021/01/05 12:22:19;;;;;;;19.25;13.05;;;2.00;99.90;;;;;;5012705;28;20269;-73
2021/01/05 12:24:46;;;;;;;18.65;13.75;;;2.00;99.90;;;;;;5014125;28;20221;-72
2021/01/05 12:27:12;;;;;;;18.75;13.57;;;1.90;99.90;;;;;;5012381;28;20624;-73
2021/01/05 12:29:41;;;;;;;18.52;13.18;;;1.90;99.90;;;;;;5026380;28;20237;-72
2021/01/05 12:32:09;;;;;;;19.17;13.95;;;1.90;99.90;;;;;;5011032;28;20233;-72
2021/01/05 12:34:38;;;;;;;20.52;13.40;;;1.80;99.90;;;;;;5014982;28;20938;-72
2021/01/05 12:37:06;;;;;;;20.60;14.50;;;1.80;99.90;;;;;;5020338;28;20657;-72
2021/01/05 12:39:34;;;;;;;20.30;12.98;;;1.80;99.90;;;;;;5015528;28;20199;-73
2021/01/05 12:42:05;;;;;;;18.15;12.40;;;1.80;99.90;;;;;;5014600;28;20213;-73
2021/01/05 12:44:33;;;;;;;21.17;12.98;;;1.80;99.90;;;;;;5019279;28;20229;-72
2021/01/05 12:46:59;;;;;;;24.15;13.93;;;1.80;99.90;;;;;;5015409;28;20209;-72
2021/01/05 12:49:25;;;;;;;19.65;12.95;;;1.80;99.90;;;;;;5010682;28;20205;-72
2021/01/05 12:51:52;;;;;;;21.55;13.70;;;1.70;99.90;;;;;;5003618;28;20221;-73